createdAt,value
2022-11-08T00:02:10.241Z,100587.47
2022-11-08T00:04:39.589Z,100586.13
2022-11-08T00:07:24.707Z,100593.41
2022-11-08T00:10:09.900Z,100589.91
2022-11-08T00:12:55.109Z,100588.28
2022-11-08T00:15:22.813Z,100584.75
2022-11-08T00:17:50.578Z,100580.19
2022-11-08T00:20:19.725Z,100582.31
2022-11-08T00:22:47.448Z,100587.50
2022-11-08T00:25:15.197Z,100584.47
2022-11-08T00:27:42.928Z,100586.94
2022-11-08T00:30:11.393Z,100582.63
2022-11-08T00:32:39.106Z,100581.53
2022-11-08T00:35:08.069Z,100585.06
2022-11-08T00:37:37.137Z,100581.28
2022-11-08T00:40:05.413Z,100585.88
2022-11-08T00:42:33.131Z,100579.13
2022-11-08T00:45:00.832Z,100578.59
2022-11-08T00:47:28.557Z,100585.34
2022-11-08T00:49:56.379Z,100585.88
2022-11-08T00:52:24.104Z,100580.22
2022-11-08T00:54:53.199Z,100579.38
2022-11-08T00:57:27.543Z,100582.38
2022-11-08T01:00:10.711Z,100572.38
2022-11-08T01:02:38.552Z,100577.22
2022-11-08T01:05:06.990Z,100574.53
2022-11-08T01:07:34.746Z,100574.28
2022-11-08T01:10:03.985Z,100578.84
2022-11-08T01:12:31.844Z,100577.22
2022-11-08T01:14:59.576Z,100576.66
2022-11-08T01:17:27.367Z,100574.47
2022-11-08T01:19:55.109Z,100576.88
2022-11-08T01:22:22.842Z,100582.06
2022-11-08T01:24:50.563Z,100584.25
2022-11-08T01:27:19.649Z,100575.00
2022-11-08T01:29:47.370Z,100578.22
2022-11-08T01:32:15.112Z,100589.03
2022-11-08T01:34:42.815Z,100587.97
2022-11-08T01:37:10.633Z,100584.16
2022-11-08T01:39:38.348Z,100584.69
2022-11-08T01:42:06.341Z,100577.69
2022-11-08T01:44:35.441Z,100579.00
2022-11-08T01:47:03.177Z,100582.53
2022-11-08T01:49:37.975Z,100586.31
2022-11-08T01:52:11.808Z,100583.06
2022-11-08T01:54:43.798Z,100584.16
2022-11-08T01:57:14.729Z,100578.50
2022-11-08T01:59:45.645Z,100580.88
2022-11-08T02:02:13.717Z,100588.22
2022-11-08T02:04:42.332Z,100575.97
2022-11-08T02:07:10.531Z,100583.25
2022-11-08T02:09:39.823Z,100578.34
2022-11-08T02:12:08.890Z,100575.59
2022-11-08T02:14:37.574Z,100578.06
2022-11-08T02:17:06.795Z,100575.31
2022-11-08T02:19:39.507Z,100573.69
2022-11-08T02:22:14.057Z,100577.75
2022-11-08T02:24:43.216Z,100570.16
2022-11-08T02:27:11.854Z,100569.84
2022-11-08T02:29:39.615Z,100571.22
2022-11-08T02:32:07.359Z,100566.94
2022-11-08T02:34:37.558Z,100568.75
2022-11-08T02:37:06.645Z,100566.38
2022-11-08T02:39:34.393Z,100561.47
2022-11-08T02:42:03.917Z,100563.69
2022-11-08T02:44:31.636Z,100569.56
2022-11-08T02:46:59.371Z,100563.88
2022-11-08T02:49:27.085Z,100569.28
2022-11-08T02:51:55.078Z,100564.91
2022-11-08T02:54:23.049Z,100561.38
2022-11-08T02:56:50.781Z,100565.44
2022-11-08T02:59:19.898Z,100558.13
2022-11-08T03:01:47.753Z,100563.50
2022-11-08T03:04:15.787Z,100556.00
2022-11-08T03:06:43.550Z,100557.91
2022-11-08T03:09:11.893Z,100557.66
2022-11-08T03:11:41.857Z,100559.59
2022-11-08T03:14:09.759Z,100559.63
2022-11-08T03:16:38.828Z,100556.38
2022-11-08T03:19:06.541Z,100563.63
2022-11-08T03:21:35.812Z,100560.63
2022-11-08T03:24:04.198Z,100561.72
2022-11-08T03:26:32.564Z,100552.78
2022-11-08T03:29:00.332Z,100543.63
2022-11-08T03:31:28.132Z,100550.06
2022-11-08T03:33:57.289Z,100555.78
2022-11-08T03:36:25.372Z,100557.63
2022-11-08T03:38:53.245Z,100554.72
2022-11-08T03:41:20.976Z,100561.41
2022-11-08T03:43:48.711Z,100556.78
2022-11-08T03:46:16.400Z,100558.13
2022-11-08T03:48:44.135Z,100565.97
2022-11-08T03:51:13.207Z,100565.16
2022-11-08T03:53:41.399Z,100564.84
2022-11-08T03:56:09.508Z,100556.50
2022-11-08T03:58:39.003Z,100556.47
2022-11-08T04:01:07.535Z,100552.94
2022-11-08T04:03:35.325Z,100553.75
2022-11-08T04:06:03.345Z,100555.66
2022-11-08T04:08:34.591Z,100556.97
2022-11-08T04:11:22.327Z,100557.84
2022-11-08T04:14:07.755Z,100563.75
2022-11-08T04:16:35.783Z,100556.72
2022-11-08T04:19:21.220Z,100559.47
2022-11-08T04:21:50.802Z,100551.94
2022-11-08T04:24:19.948Z,100552.22
2022-11-08T04:26:47.659Z,100549.66
2022-11-08T04:29:15.530Z,100555.59
2022-11-08T04:31:43.294Z,100556.16
2022-11-08T04:34:11.268Z,100555.78
2022-11-08T04:36:39.084Z,100548.56
2022-11-08T04:39:06.941Z,100554.97
2022-11-08T04:41:36.038Z,100547.19
2022-11-08T04:44:04.520Z,100548.03
2022-11-08T04:46:32.246Z,100536.88
2022-11-08T04:49:01.133Z,100550.63
2022-11-08T04:51:31.782Z,100535.75
2022-11-08T04:54:01.137Z,100541.13
2022-11-08T04:56:31.428Z,100544.41
2022-11-08T04:59:01.717Z,100539.22
2022-11-08T05:01:32.076Z,100549.75
2022-11-08T05:03:59.991Z,100549.00
2022-11-08T05:06:30.005Z,100547.00
2022-11-08T05:08:58.943Z,100545.09
2022-11-08T05:11:28.143Z,100547.78
2022-11-08T05:13:56.422Z,100544.28
2022-11-08T05:16:27.162Z,100545.59
2022-11-08T05:18:55.023Z,100539.84
2022-11-08T05:21:41.781Z,100536.63
2022-11-08T05:24:11.872Z,100544.41
2022-11-08T05:26:41.971Z,100541.16
2022-11-08T05:29:10.032Z,100549.84
2022-11-08T05:31:39.251Z,100532.31
2022-11-08T05:34:07.544Z,100543.59
2022-11-08T05:36:35.528Z,100545.78
2022-11-08T05:39:04.653Z,100547.34
2022-11-08T05:41:32.442Z,100546.31
2022-11-08T05:44:00.127Z,100544.41
2022-11-08T05:46:27.874Z,100540.63
2022-11-08T05:48:57.474Z,100538.25
2022-11-08T05:51:25.179Z,100542.72
2022-11-08T05:53:53.029Z,100537.56
2022-11-08T05:56:20.915Z,100543.03
2022-11-08T05:58:48.632Z,100537.88
2022-11-08T06:01:17.655Z,100541.28
2022-11-08T06:03:46.800Z,100535.66
2022-11-08T06:06:17.454Z,100529.09
2022-11-08T06:08:50.029Z,100532.91
2022-11-08T06:11:21.593Z,100538.34
2022-11-08T06:13:49.729Z,100534.28
2022-11-08T06:16:18.854Z,100533.41
2022-11-08T06:18:46.903Z,100529.97
2022-11-08T06:21:17.628Z,100534.00
2022-11-08T06:23:45.903Z,100528.91
2022-11-08T06:26:14.371Z,100529.41
2022-11-08T06:28:42.408Z,100532.56
2022-11-08T06:31:10.158Z,100524.75
2022-11-08T06:33:38.727Z,100528.03
2022-11-08T06:36:07.907Z,100530.38
2022-11-08T06:38:37.118Z,100530.72
2022-11-08T06:41:04.984Z,100533.16
2022-11-08T06:43:32.759Z,100532.03
2022-11-08T06:46:06.073Z,100526.69
2022-11-08T06:48:36.064Z,100530.13
2022-11-08T06:51:05.064Z,100529.06
2022-11-08T06:53:33.136Z,100529.88
2022-11-08T06:56:06.469Z,100523.22
2022-11-08T06:58:34.306Z,100518.63
2022-11-08T07:01:04.742Z,100528.84
2022-11-08T07:03:32.524Z,100521.03
2022-11-08T07:06:02.976Z,100517.78
2022-11-08T07:08:30.901Z,100522.94
2022-11-08T07:10:58.898Z,100514.66
2022-11-08T07:13:27.991Z,100524.25
2022-11-08T07:15:58.726Z,100517.03
2022-11-08T07:18:26.688Z,100521.47
2022-11-08T07:20:54.579Z,100518.22
2022-11-08T07:23:22.878Z,100521.06
2022-11-08T07:25:51.107Z,100509.88
2022-11-08T07:28:20.302Z,100512.53
2022-11-08T07:30:50.232Z,100512.66
2022-11-08T07:33:18.708Z,100514.75
2022-11-08T07:35:47.654Z,100517.78
2022-11-08T07:38:15.456Z,100509.56
2022-11-08T07:40:43.421Z,100518.91
2022-11-08T07:43:12.917Z,100513.06
2022-11-08T07:45:41.373Z,100509.13
2022-11-08T07:48:13.102Z,100516.50
2022-11-08T07:50:41.985Z,100517.78
2022-11-08T07:53:09.850Z,100515.66
2022-11-08T07:55:38.081Z,100517.03
2022-11-08T07:58:06.631Z,100516.00
2022-11-08T08:00:36.251Z,100499.56
2022-11-08T08:03:05.734Z,100513.50
2022-11-08T08:05:36.605Z,100510.03
2022-11-08T08:08:05.063Z,100516.53
2022-11-08T08:10:32.995Z,100516.84
2022-11-08T08:13:02.989Z,100516.91
2022-11-08T08:15:30.802Z,100523.69
2022-11-08T08:18:01.002Z,100524.22
2022-11-08T08:20:31.916Z,100516.72
2022-11-08T08:23:01.655Z,100514.75
2022-11-08T08:25:31.407Z,100519.22
2022-11-08T08:28:00.817Z,100507.09
2022-11-08T08:31:17.531Z,100509.88
2022-11-08T08:35:12.665Z,100512.91
2022-11-08T08:37:40.192Z,100510.97
2022-11-08T08:40:08.925Z,100506.16
2022-11-08T08:42:36.849Z,100499.22
2022-11-08T08:45:04.717Z,100497.03
2022-11-08T08:47:32.229Z,100501.91
2022-11-08T08:49:59.701Z,100494.13
2022-11-08T08:52:28.507Z,100491.97
2022-11-08T08:54:56.010Z,100491.69
2022-11-08T08:57:23.521Z,100497.06
2022-11-08T09:02:41.314Z,100501.69
2022-11-08T09:05:11.113Z,100488.22
2022-11-08T09:07:39.966Z,100491.09
2022-11-08T09:10:09.327Z,100483.56
2022-11-08T09:12:37.150Z,100487.34
2022-11-08T09:15:05.949Z,100470.66
2022-11-08T09:17:33.456Z,100479.28
2022-11-08T09:20:01.149Z,100472.00
2022-11-08T09:22:28.630Z,100469.84
2022-11-08T09:24:57.492Z,100475.00
2022-11-08T09:27:24.964Z,100476.09
2022-11-08T09:29:52.500Z,100463.97
2022-11-08T09:32:33.324Z,100463.16
2022-11-08T09:35:08.439Z,100458.88
2022-11-08T09:37:35.943Z,100462.09
2022-11-08T09:40:05.231Z,100452.38
2022-11-08T09:42:43.655Z,100454.53
2022-11-08T09:45:21.290Z,100449.94
2022-11-08T09:47:53.029Z,100459.72
2022-11-08T09:50:23.074Z,100458.63
2022-11-08T09:52:53.864Z,100448.88
2022-11-08T09:55:27.699Z,100437.53
2022-11-08T09:58:03.960Z,100445.63
2022-11-08T10:00:39.648Z,100432.41
2022-11-08T10:03:07.287Z,100434.06
2022-11-08T10:05:40.358Z,100436.19
2022-11-08T10:08:12.297Z,100420.81
2022-11-08T10:10:58.479Z,100418.91
2022-11-08T10:13:32.050Z,100414.31
2022-11-08T10:16:03.586Z,100419.47
2022-11-08T10:18:49.532Z,100404.34
2022-11-08T10:21:24.763Z,100409.44
2022-11-08T10:23:57.604Z,100410.28
2022-11-08T10:26:30.297Z,100386.22
2022-11-08T10:29:02.993Z,100380.03
2022-11-08T10:31:34.081Z,100381.63
2022-11-08T10:34:03.213Z,100381.13
2022-11-08T10:36:36.176Z,100376.75
2022-11-08T10:39:05.821Z,100365.16
2022-11-08T10:41:44.479Z,100357.56
2022-11-08T10:44:15.248Z,100353.00
2022-11-08T10:46:45.304Z,100351.06
2022-11-08T10:49:19.393Z,100340.53
2022-11-08T10:51:48.222Z,100341.34
2022-11-08T10:54:44.490Z,100346.47
2022-11-08T10:57:15.210Z,100330.78
2022-11-08T10:59:43.520Z,100331.28
2022-11-08T11:02:24.320Z,100320.19
2022-11-08T11:04:52.271Z,100328.28
2022-11-08T11:07:30.911Z,100315.53
2022-11-08T11:09:58.503Z,100319.06
2022-11-08T11:12:27.303Z,100305.53
2022-11-08T11:14:59.104Z,100305.25
2022-11-08T11:17:35.572Z,100302.56
2022-11-08T11:20:07.251Z,100305.72
2022-11-08T11:22:35.470Z,100297.38
2022-11-08T11:25:07.554Z,100301.41
2022-11-08T11:27:38.512Z,100303.84
2022-11-08T11:30:24.921Z,100304.66
2022-11-08T11:33:01.552Z,100299.75
2022-11-08T11:35:34.754Z,100300.88
2022-11-08T11:38:05.323Z,100301.63
2022-11-08T11:40:37.139Z,100293.84
2022-11-08T11:43:11.276Z,100296.81
2022-11-08T11:45:44.252Z,100294.13
2022-11-08T11:48:17.960Z,100291.16
2022-11-08T11:50:47.087Z,100288.94
2022-11-08T11:53:17.694Z,100286.75
2022-11-08T11:56:10.030Z,100285.38
2022-11-08T11:59:02.635Z,100283.44
2022-11-08T12:01:48.084Z,100288.06
2022-11-08T12:04:51.136Z,100278.31
2022-11-08T12:07:20.451Z,100280.75
2022-11-08T12:09:55.065Z,100275.31
2022-11-08T12:12:33.007Z,100267.22
2022-11-08T12:15:05.371Z,100259.03
2022-11-08T12:17:49.108Z,100254.16
2022-11-08T12:20:36.041Z,100236.88
2022-11-08T12:23:14.704Z,100244.69
2022-11-08T12:25:49.111Z,100238.19
2022-11-08T12:28:32.604Z,100248.50
2022-11-08T12:31:09.638Z,100228.72
2022-11-08T12:33:44.500Z,100233.31
2022-11-08T12:36:17.223Z,100221.66
2022-11-08T12:38:56.544Z,100224.91
2022-11-08T12:41:29.569Z,100229.50
2022-11-08T12:44:26.796Z,100220.63
2022-11-08T12:47:06.501Z,100221.97
2022-11-08T12:49:40.320Z,100216.28
2022-11-08T12:52:15.990Z,100212.50
2022-11-08T12:54:46.440Z,100214.06
2022-11-08T12:57:16.483Z,100213.25
2022-11-08T12:59:46.732Z,100209.22
2022-11-08T13:02:19.582Z,100212.78
2022-11-08T13:04:59.127Z,100206.78
2022-11-08T13:07:35.068Z,100207.38
2022-11-08T13:10:07.825Z,100201.69
2022-11-08T13:12:44.919Z,100207.34
2022-11-08T13:15:20.522Z,100207.84
2022-11-08T13:18:30.772Z,100210.03
2022-11-08T13:20:58.282Z,100215.19
2022-11-08T13:23:29.286Z,100207.59
2022-11-08T13:26:12.651Z,100207.91
2022-11-08T13:28:44.794Z,100204.91
2022-11-08T13:31:21.905Z,100209.22
2022-11-08T13:34:02.119Z,100203.88
2022-11-08T13:36:36.755Z,100193.59
2022-11-08T13:39:19.956Z,100200.59
2022-11-08T13:42:05.376Z,100194.63
2022-11-08T13:44:58.827Z,100187.88
2022-11-08T13:47:53.223Z,100211.97
2022-11-08T13:50:47.651Z,100204.38
2022-11-08T13:53:45.696Z,100207.38
2022-11-08T13:56:25.245Z,100206.56
2022-11-08T13:58:52.769Z,100193.28
2022-11-08T14:01:57.800Z,100188.97
2022-11-08T14:04:26.419Z,100192.50
2022-11-08T14:07:03.466Z,100173.84
2022-11-08T14:09:37.995Z,100184.66
2022-11-08T14:12:09.387Z,100185.50
2022-11-08T14:14:45.348Z,100181.69
2022-11-08T14:17:35.567Z,100184.66
2022-11-08T14:20:19.791Z,100180.63
2022-11-08T14:22:50.378Z,100188.75
2022-11-08T14:25:23.430Z,100183.59
2022-11-08T14:27:50.944Z,100181.75
2022-11-08T14:30:20.664Z,100177.91
2022-11-08T14:32:48.375Z,100176.34
2022-11-08T14:35:22.108Z,100169.84
2022-11-08T14:37:51.200Z,100175.53
2022-11-08T14:40:20.296Z,100176.38
2022-11-08T14:42:47.964Z,100180.47
2022-11-08T14:45:16.396Z,100170.69
2022-11-08T14:47:44.643Z,100176.16
2022-11-08T14:50:19.543Z,100172.13
2022-11-08T14:52:47.407Z,100175.34
2022-11-08T14:55:19.741Z,100180.78
2022-11-08T14:57:47.665Z,100176.50
2022-11-08T15:00:17.350Z,100167.25
2022-11-08T15:02:47.725Z,100163.50
2022-11-08T15:05:31.545Z,100175.91
2022-11-08T15:07:59.587Z,100174.31
2022-11-08T15:10:28.857Z,100158.34
2022-11-08T15:12:56.707Z,100158.41
2022-11-08T15:15:26.868Z,100160.59
2022-11-08T15:18:12.517Z,100164.63
2022-11-08T15:20:40.790Z,100157.59
2022-11-08T15:23:25.440Z,100169.47
2022-11-08T15:25:58.617Z,100159.50
2022-11-08T15:28:32.605Z,100156.50
2022-11-08T15:31:01.139Z,100158.97
2022-11-08T15:33:33.413Z,100166.78
2022-11-08T15:36:01.395Z,100164.41
2022-11-08T15:38:31.627Z,100152.78
2022-11-08T15:41:01.916Z,100155.22
2022-11-08T15:43:41.099Z,100148.97
2022-11-08T15:46:27.751Z,100148.47
2022-11-08T15:48:59.433Z,100147.66
2022-11-08T15:51:26.963Z,100148.19
2022-11-08T15:53:54.499Z,100139.47
2022-11-08T15:56:23.303Z,100146.56
2022-11-08T15:58:50.788Z,100153.59
2022-11-08T16:01:20.559Z,100145.50
2022-11-08T16:03:48.419Z,100156.00
2022-11-08T16:06:16.057Z,100140.09
2022-11-08T16:08:43.524Z,100139.78
2022-11-08T16:11:16.396Z,100150.59
2022-11-08T16:13:45.220Z,100147.09
2022-11-08T16:16:14.556Z,100141.16
2022-11-08T16:18:42.413Z,100137.63
2022-11-08T16:21:11.028Z,100146.28
2022-11-08T16:23:38.683Z,100142.78
2022-11-08T16:26:07.272Z,100145.19
2022-11-08T16:28:37.957Z,100142.78
2022-11-08T16:31:08.580Z,100145.72
2022-11-08T16:33:37.008Z,100146.00
2022-11-08T16:36:12.543Z,100139.81
2022-11-08T16:38:40.044Z,100145.75
2022-11-08T16:41:07.567Z,100131.69
2022-11-08T16:43:35.076Z,100131.38
2022-11-08T16:46:07.347Z,100130.38
2022-11-08T16:48:36.318Z,100130.34
2022-11-08T16:51:05.829Z,100121.47
2022-11-08T16:53:33.299Z,100120.34
2022-11-08T16:56:01.084Z,100119.28
2022-11-08T16:58:28.815Z,100125.50
2022-11-08T17:00:56.978Z,100113.91
2022-11-08T17:03:29.401Z,100120.44
2022-11-08T17:05:57.058Z,100121.50
2022-11-08T17:08:25.597Z,100113.91
2022-11-08T17:10:53.198Z,100112.56
2022-11-08T17:13:21.130Z,100110.13
2022-11-08T17:15:49.552Z,100097.75
2022-11-08T17:18:18.857Z,100107.47
2022-11-08T17:20:48.415Z,100103.66
2022-11-08T17:23:16.224Z,100112.09
2022-11-08T17:25:44.424Z,100118.78
2022-11-08T17:28:12.936Z,100122.28
2022-11-08T17:30:43.983Z,100127.63
2022-11-08T17:33:13.534Z,100137.97
2022-11-08T17:35:43.890Z,100145.22
2022-11-08T17:38:13.424Z,100143.56
2022-11-08T17:40:42.054Z,100154.94
2022-11-08T17:43:09.572Z,100159.28
2022-11-08T17:45:37.182Z,100167.09
2022-11-08T17:48:04.829Z,100162.47
2022-11-08T17:50:32.305Z,100168.19
2022-11-08T17:52:59.804Z,100170.38
2022-11-08T17:55:28.644Z,100163.91
2022-11-08T17:57:56.188Z,100168.19
2022-11-08T18:00:23.988Z,100162.28
2022-11-08T18:02:51.515Z,100169.06
2022-11-08T18:05:19.000Z,100167.16
2022-11-08T18:07:46.514Z,100157.72
2022-11-08T18:10:14.026Z,100161.75
2022-11-08T18:12:43.195Z,100156.03
2022-11-08T18:15:11.520Z,100160.97
2022-11-08T18:17:38.998Z,100162.28
2022-11-08T18:20:07.457Z,100154.25
2022-11-08T18:22:35.091Z,100169.66
2022-11-08T18:25:02.988Z,100165.34
2022-11-08T18:27:30.580Z,100164.50
2022-11-08T18:29:59.406Z,100169.13
2022-11-08T18:32:26.895Z,100165.34
2022-11-08T18:34:54.503Z,100165.34
2022-11-08T18:37:22.024Z,100164.81
2022-11-08T18:39:49.513Z,100166.16
2022-11-08T18:42:16.986Z,100163.44
2022-11-08T18:44:44.475Z,100156.72
2022-11-08T18:47:13.312Z,100162.34
2022-11-08T18:49:40.822Z,100166.19
2022-11-08T18:52:08.427Z,100166.22
2022-11-08T18:54:35.927Z,100158.09
2022-11-08T18:57:03.862Z,100150.50
2022-11-08T18:59:31.371Z,100149.44
2022-11-08T19:01:59.010Z,100161.09
2022-11-08T19:04:28.027Z,100157.78
2022-11-08T19:06:55.601Z,100159.97
2022-11-08T19:09:23.246Z,100160.25
2022-11-08T19:11:50.723Z,100164.03
2022-11-08T19:14:19.104Z,100166.44
2022-11-08T19:16:46.632Z,100166.69
2022-11-08T19:19:14.123Z,100168.31
2022-11-08T19:21:43.613Z,100170.25
2022-11-08T19:24:11.140Z,100158.34
2022-11-08T19:26:39.349Z,100168.34
2022-11-08T19:29:07.099Z,100171.31
2022-11-08T19:31:36.267Z,100165.91
2022-11-08T19:34:04.136Z,100172.41
2022-11-08T19:36:33.107Z,100167.56
2022-11-08T19:39:01.932Z,100171.84
2022-11-08T19:41:29.735Z,100155.09
2022-11-08T19:43:57.236Z,100163.22
2022-11-08T19:46:26.711Z,100162.91
2022-11-08T19:48:54.367Z,100163.50
2022-11-08T19:51:23.659Z,100166.44
2022-11-08T19:53:51.674Z,100168.59
2022-11-08T19:56:29.225Z,100174.00
2022-11-08T19:59:05.468Z,100169.94
2022-11-08T20:01:36.093Z,100173.44
2022-11-08T20:04:05.315Z,100171.00
2022-11-08T20:06:33.351Z,100166.94
2022-11-08T20:09:03.097Z,100167.75
2022-11-08T20:11:33.439Z,100178.34
2022-11-08T20:14:03.507Z,100179.66
2022-11-08T20:16:33.051Z,100172.31
2022-11-08T20:19:03.027Z,100167.50
2022-11-08T20:21:31.033Z,100173.97
2022-11-08T20:23:58.683Z,100176.38
2022-11-08T20:26:27.637Z,100162.13
2022-11-08T20:28:57.316Z,100161.84
2022-11-08T20:31:25.877Z,100172.91
2022-11-08T20:33:54.401Z,100154.56
2022-11-08T20:36:24.447Z,100175.56
2022-11-08T20:38:55.716Z,100167.72
2022-11-08T20:41:23.656Z,100177.22
2022-11-08T20:43:51.123Z,100171.81
2022-11-08T20:46:21.456Z,100180.97
2022-11-08T20:48:51.086Z,100178.03
2022-11-08T20:51:20.654Z,100186.16
2022-11-08T20:53:48.896Z,100184.50
2022-11-08T20:56:17.610Z,100174.81
2022-11-08T20:58:45.957Z,100170.75
2022-11-08T21:01:15.289Z,100169.63
2022-11-08T21:03:45.614Z,100166.38
2022-11-08T21:06:14.981Z,100167.75
2022-11-08T21:09:00.826Z,100173.09
2022-11-08T21:11:32.130Z,100171.56
2022-11-08T21:13:59.446Z,100170.44
2022-11-08T21:16:34.986Z,100174.78
2022-11-08T21:19:07.353Z,100189.09
2022-11-08T21:21:34.668Z,100187.19
2022-11-08T21:24:03.814Z,100186.16
2022-11-08T21:26:36.230Z,100177.47
2022-11-08T21:29:03.984Z,100182.09
2022-11-08T21:31:31.334Z,100183.97
2022-11-08T21:33:59.105Z,100180.72
2022-11-08T21:36:28.960Z,100176.66
2022-11-08T21:38:56.308Z,100172.03
2022-11-08T21:41:23.639Z,100188.00
2022-11-08T21:43:50.952Z,100186.16
2022-11-08T21:46:20.277Z,100190.22
2022-11-08T21:48:48.193Z,100176.69
2022-11-08T21:51:16.076Z,100171.78
2022-11-08T21:53:53.703Z,100179.31
2022-11-08T21:56:22.163Z,100173.94
2022-11-08T21:58:49.537Z,100191.72
2022-11-08T22:01:17.549Z,100182.84
2022-11-08T22:03:44.980Z,100178.78
2022-11-08T22:06:12.505Z,100185.28
2022-11-08T22:08:39.863Z,100182.03
2022-11-08T22:11:08.565Z,100191.22
2022-11-08T22:13:35.975Z,100187.16
2022-11-08T22:16:03.584Z,100189.13
2022-11-08T22:18:50.774Z,100187.16
2022-11-08T22:21:35.884Z,100189.34
2022-11-08T22:24:03.287Z,100191.25
2022-11-08T22:26:31.976Z,100189.13
2022-11-08T22:28:59.518Z,100189.66
2022-11-08T22:31:27.241Z,100191.53
2022-11-08T22:33:54.684Z,100198.31
2022-11-08T22:36:22.035Z,100193.44
2022-11-08T22:38:49.412Z,100203.13
2022-11-08T22:41:17.777Z,100191.75
2022-11-08T22:43:46.980Z,100198.81
2022-11-08T22:46:15.079Z,100205.59
2022-11-08T22:48:44.688Z,100193.16
2022-11-08T22:51:12.244Z,100200.19
2022-11-08T22:53:40.295Z,100193.16
2022-11-08T22:56:11.283Z,100188.88
2022-11-08T22:58:39.219Z,100188.03
2022-11-08T23:01:08.071Z,100185.31
2022-11-08T23:03:35.413Z,100186.16
2022-11-08T23:06:02.872Z,100181.25
2022-11-08T23:08:30.654Z,100190.19
2022-11-08T23:11:13.782Z,100190.97
2022-11-08T23:13:58.977Z,100190.19
2022-11-08T23:16:35.106Z,100175.88
2022-11-08T23:19:21.766Z,100184.25
2022-11-08T23:22:05.697Z,100186.94
2022-11-08T23:24:33.512Z,100188.91
2022-11-08T23:27:19.259Z,100192.38
2022-11-08T23:30:04.033Z,100190.47
2022-11-08T23:32:32.771Z,100196.97
2022-11-08T23:35:00.127Z,100201.00
2022-11-08T23:37:27.723Z,100210.72
2022-11-08T23:40:12.447Z,100198.00
2022-11-08T23:42:57.874Z,100198.34
2022-11-08T23:45:25.319Z,100194.78
2022-11-08T23:47:54.119Z,100192.88
2022-11-08T23:50:21.779Z,100195.84
2022-11-08T23:52:49.216Z,100198.59
2022-11-08T23:55:16.836Z,100195.63
2022-11-08T23:57:44.317Z,100200.75
